createdAt,value
2023-03-21T00:00:51.673Z,36.30
2023-03-21T00:01:50.747Z,50.80
2023-03-21T00:02:51.771Z,50.70
2023-03-21T00:03:50.812Z,47.40
2023-03-21T00:04:53.706Z,52.90
2023-03-21T00:05:51.579Z,51.40
2023-03-21T00:06:51.701Z,62.60
2023-03-21T00:07:51.434Z,50.20
2023-03-21T00:08:50.694Z,51.50
2023-03-21T00:09:51.500Z,61.90
2023-03-21T00:10:51.520Z,69.30
2023-03-21T00:11:51.429Z,47.30
2023-03-21T00:12:51.583Z,49.10
2023-03-21T00:13:50.613Z,49.40
2023-03-21T00:14:50.615Z,49.70
2023-03-21T00:16:04.968Z,49.30
2023-03-21T00:16:51.692Z,48.80
2023-03-21T00:17:50.831Z,50.20
2023-03-21T00:18:50.524Z,51.10
2023-03-21T00:19:51.637Z,48.60
2023-03-21T00:20:50.546Z,52.40
2023-03-21T00:22:05.923Z,45.70
2023-03-21T00:22:51.477Z,52.80
2023-03-21T00:23:51.247Z,53.70
2023-03-21T00:24:50.571Z,58.20
2023-03-21T00:25:50.439Z,62.70
2023-03-21T00:26:50.604Z,49.60
2023-03-21T00:28:05.509Z,55.30
2023-03-21T00:28:52.310Z,55.30
2023-03-21T00:29:50.631Z,53.10
2023-03-21T00:30:50.590Z,55.30
2023-03-21T00:31:50.359Z,70.10
2023-03-21T00:32:56.419Z,49.60
2023-03-21T00:33:52.080Z,71.40
2023-03-21T00:35:38.301Z,61.20
2023-03-21T00:36:01.795Z,53.20
2023-03-21T00:36:52.070Z,55.70
2023-03-21T00:37:50.220Z,55.90
2023-03-21T00:38:50.332Z,49.30
2023-03-21T00:39:50.233Z,58.20
2023-03-21T00:40:50.279Z,53.60
2023-03-21T00:41:50.288Z,57.60
2023-03-21T00:42:50.223Z,58.90
2023-03-21T00:43:50.181Z,64.20
2023-03-21T00:44:50.135Z,53.00
2023-03-21T00:45:50.140Z,57.00
2023-03-21T00:47:04.411Z,47.00
2023-03-21T00:47:52.107Z,60.90
2023-03-21T00:48:50.121Z,51.00
2023-03-21T00:49:50.134Z,54.70
2023-03-21T00:50:50.337Z,58.60
2023-03-21T00:51:50.332Z,66.80
2023-03-21T00:52:50.066Z,62.90
2023-03-21T00:53:50.043Z,64.60
2023-03-21T00:54:50.045Z,68.40
2023-03-21T00:55:50.059Z,53.50
2023-03-21T00:56:50.031Z,64.90
2023-03-21T00:57:56.224Z,65.10
2023-03-21T00:58:50.994Z,63.10
2023-03-21T00:59:49.984Z,42.20
2023-03-21T01:00:49.945Z,47.80
2023-03-21T01:01:50.062Z,51.50
2023-03-21T01:02:54.779Z,59.80
2023-03-21T01:03:51.057Z,62.70
2023-03-21T01:04:49.950Z,62.40
2023-03-21T01:05:49.865Z,59.20
2023-03-21T01:06:49.891Z,59.50
2023-03-21T01:07:49.838Z,69.80
2023-03-21T01:08:53.020Z,66.10
2023-03-21T01:09:50.227Z,86.00
2023-03-21T01:10:49.766Z,87.60
2023-03-21T01:11:50.267Z,90.10
2023-03-21T01:12:49.790Z,61.50
2023-03-21T01:14:20.727Z,69.90
2023-03-21T01:14:51.475Z,93.90
2023-03-21T01:15:50.630Z,99.30
2023-03-21T01:16:49.914Z,114.00
2023-03-21T01:17:49.668Z,85.30
2023-03-21T01:18:49.669Z,82.00
2023-03-21T01:19:52.279Z,80.60
2023-03-21T01:20:49.619Z,91.40
2023-03-21T01:21:49.641Z,69.90
2023-03-21T01:22:49.576Z,56.30
2023-03-21T01:23:49.634Z,79.60
2023-03-21T01:24:55.411Z,72.10
2023-03-21T01:25:50.552Z,91.70
2023-03-21T01:26:49.533Z,87.80
2023-03-21T01:27:50.490Z,82.60
2023-03-21T01:28:49.538Z,81.90
2023-03-21T01:29:49.568Z,81.20
2023-03-21T01:30:50.444Z,106.30
2023-03-21T01:31:49.528Z,85.40
2023-03-21T01:32:49.482Z,90.50
2023-03-21T01:33:49.487Z,71.50
2023-03-21T01:34:49.829Z,118.50
2023-03-21T01:35:55.359Z,100.90
2023-03-21T01:36:50.592Z,74.50
2023-03-21T01:37:49.398Z,90.60
2023-03-21T01:38:49.381Z,103.90
2023-03-21T01:39:49.392Z,78.80
2023-03-21T01:40:50.252Z,88.30
2023-03-21T01:41:49.494Z,70.70
2023-03-21T01:42:49.729Z,85.80
2023-03-21T01:43:49.426Z,98.80
2023-03-21T01:44:49.365Z,129.70
2023-03-21T01:45:49.389Z,93.80
2023-03-21T01:47:00.119Z,95.20
2023-03-21T01:47:50.327Z,94.30
2023-03-21T01:48:49.248Z,92.90
2023-03-21T01:49:49.257Z,97.30
2023-03-21T01:50:49.243Z,99.30
2023-03-21T01:51:49.254Z,104.10
2023-03-21T01:52:50.347Z,98.80
2023-03-21T01:53:49.252Z,72.30
2023-03-21T01:54:49.185Z,84.40
2023-03-21T01:55:49.193Z,89.10
2023-03-21T01:56:49.164Z,107.70
2023-03-21T01:58:03.992Z,109.60
2023-03-21T01:58:50.210Z,112.30
2023-03-21T01:59:49.148Z,95.00
2023-03-21T02:00:49.128Z,92.50
2023-03-21T02:01:49.095Z,97.50
2023-03-21T02:02:49.074Z,75.60
2023-03-21T02:03:49.125Z,106.90
2023-03-21T02:04:50.356Z,119.40
2023-03-21T02:05:49.006Z,110.60
2023-03-21T02:06:49.035Z,115.50
2023-03-21T02:07:49.060Z,101.70
2023-03-21T02:08:49.013Z,107.10
2023-03-21T02:09:49.027Z,98.60
2023-03-21T02:10:50.527Z,103.70
2023-03-21T02:11:48.957Z,90.80
2023-03-21T02:12:49.005Z,119.20
2023-03-21T02:13:53.621Z,101.90
2023-03-21T02:14:49.915Z,139.90
2023-03-21T02:15:48.918Z,110.60
2023-03-21T02:16:48.898Z,112.30
2023-03-21T02:17:48.852Z,140.50
2023-03-21T02:18:48.928Z,118.30
2023-03-21T02:19:53.413Z,118.40
2023-03-21T02:20:49.837Z,124.30
2023-03-21T02:21:48.816Z,149.50
2023-03-21T02:22:48.868Z,124.60
2023-03-21T02:23:48.822Z,138.80
2023-03-21T02:24:54.554Z,119.00
2023-03-21T02:25:50.291Z,118.30
2023-03-21T02:27:01.420Z,129.40
2023-03-21T02:27:49.962Z,122.00
2023-03-21T02:28:48.768Z,141.60
2023-03-21T02:29:48.753Z,136.40
2023-03-21T02:30:51.931Z,163.00
2023-03-21T02:31:48.763Z,127.80
2023-03-21T02:32:49.616Z,134.20
2023-03-21T02:33:48.622Z,143.30
2023-03-21T02:34:48.586Z,153.10
2023-03-21T02:35:54.151Z,155.90
2023-03-21T02:36:50.532Z,148.00
2023-03-21T02:37:58.295Z,142.80
2023-03-21T02:38:49.560Z,133.80
2023-03-21T02:39:48.742Z,134.60
2023-03-21T02:40:48.696Z,143.00
2023-03-21T02:41:48.656Z,181.40
2023-03-21T02:42:54.797Z,119.30
2023-03-21T02:43:50.358Z,148.50
2023-03-21T02:44:49.243Z,152.70
2023-03-21T02:45:48.511Z,137.90
2023-03-21T02:46:59.696Z,158.50
2023-03-21T02:47:50.267Z,155.40
2023-03-21T02:48:51.109Z,146.00
2023-03-21T02:49:49.269Z,162.60
2023-03-21T02:50:49.171Z,123.30
2023-03-21T02:51:48.371Z,197.00
2023-03-21T02:52:48.344Z,158.60
2023-03-21T02:53:53.311Z,152.80
2023-03-21T02:54:49.375Z,126.50
2023-03-21T02:55:49.202Z,116.10
2023-03-21T02:56:48.319Z,131.00
2023-03-21T02:57:48.281Z,128.00
2023-03-21T02:58:49.172Z,145.60
2023-03-21T02:59:55.472Z,146.70
2023-03-21T03:00:49.251Z,107.00
2023-03-21T03:01:48.302Z,82.10
2023-03-21T03:02:52.576Z,132.00
2023-03-21T03:03:49.972Z,126.00
2023-03-21T03:04:48.176Z,131.70
2023-03-21T03:05:48.719Z,146.20
2023-03-21T03:06:48.126Z,146.60
2023-03-21T03:07:49.082Z,141.40
2023-03-21T03:09:01.266Z,106.30
2023-03-21T03:09:49.112Z,125.00
2023-03-21T03:10:48.654Z,159.80
2023-03-21T03:11:48.706Z,144.40
2023-03-21T03:12:48.856Z,133.70
2023-03-21T03:13:49.022Z,160.30
2023-03-21T03:15:02.361Z,121.10
2023-03-21T03:15:49.908Z,154.20
2023-03-21T03:16:48.027Z,144.20
2023-03-21T03:17:48.005Z,92.50
2023-03-21T03:18:48.035Z,125.70
2023-03-21T03:19:50.674Z,122.90
2023-03-21T03:20:48.858Z,146.70
2023-03-21T03:21:47.950Z,102.70
2023-03-21T03:22:47.928Z,117.10
2023-03-21T03:23:47.937Z,110.70
2023-03-21T03:24:48.718Z,99.20
2023-03-21T03:25:48.906Z,128.20
2023-03-21T03:26:48.740Z,113.40
2023-03-21T03:27:48.700Z,132.70
2023-03-21T03:28:48.862Z,90.00
2023-03-21T03:29:48.740Z,96.60
2023-03-21T03:31:01.180Z,130.70
2023-03-21T03:31:49.159Z,85.30
2023-03-21T03:32:48.763Z,113.80
2023-03-21T03:33:48.666Z,120.10
2023-03-21T03:34:48.567Z,128.60
2023-03-21T03:35:55.767Z,123.80
2023-03-21T03:36:48.841Z,107.80
2023-03-21T03:37:48.538Z,129.10
2023-03-21T03:38:48.698Z,85.30
2023-03-21T03:39:47.698Z,113.80
2023-03-21T03:40:48.508Z,91.30
2023-03-21T03:42:48.659Z,101.30
2023-03-21T03:43:47.668Z,109.90
2023-03-21T03:44:47.670Z,106.90
2023-03-21T03:45:47.621Z,97.60
2023-03-21T03:46:47.825Z,102.40
2023-03-21T03:47:56.452Z,105.00
2023-03-21T03:48:48.562Z,107.00
2023-03-21T03:49:47.563Z,99.90
2023-03-21T03:50:47.560Z,121.30
2023-03-21T03:51:48.022Z,95.90
2023-03-21T03:52:56.126Z,94.50
2023-03-21T03:53:48.541Z,106.50
2023-03-21T03:54:47.526Z,107.50
2023-03-21T03:55:47.572Z,100.80
2023-03-21T03:56:47.545Z,110.60
2023-03-21T03:57:47.508Z,99.80
2023-03-21T03:58:47.474Z,93.00
2023-03-21T03:59:47.554Z,107.30
2023-03-21T04:00:47.391Z,108.90
2023-03-21T04:01:47.443Z,94.70
2023-03-21T04:02:47.440Z,131.50
2023-03-21T04:03:50.484Z,106.60
2023-03-21T04:04:48.385Z,97.50
2023-03-21T04:05:47.376Z,118.20
2023-03-21T04:06:47.336Z,138.90
2023-03-21T04:07:47.296Z,112.70
2023-03-21T04:08:47.316Z,114.10
2023-03-21T04:09:47.276Z,124.10
2023-03-21T04:10:47.290Z,97.00
2023-03-21T04:11:47.269Z,117.10
2023-03-21T04:12:47.312Z,132.60
2023-03-21T04:13:47.281Z,133.20
2023-03-21T04:14:47.618Z,117.40
2023-03-21T04:15:47.284Z,102.40
2023-03-21T04:16:47.185Z,110.10
2023-03-21T04:17:47.191Z,133.30
2023-03-21T04:18:47.151Z,110.60
2023-03-21T04:19:47.150Z,99.20
2023-03-21T04:20:47.403Z,96.50
2023-03-21T04:21:47.145Z,96.10
2023-03-21T04:22:47.112Z,86.10
2023-03-21T04:23:47.122Z,112.50
2023-03-21T04:24:47.090Z,103.40
2023-03-21T04:25:55.864Z,110.30
2023-03-21T04:26:48.722Z,112.30
2023-03-21T04:27:47.052Z,108.40
2023-03-21T04:28:47.047Z,106.40
2023-03-21T04:29:47.048Z,95.40
2023-03-21T04:31:00.330Z,89.80
2023-03-21T04:31:48.053Z,105.80
2023-03-21T04:32:47.077Z,101.20
2023-03-21T04:33:46.946Z,110.50
2023-03-21T04:34:47.009Z,102.90
2023-03-21T04:35:46.929Z,103.90
2023-03-21T04:36:46.944Z,101.20
2023-03-21T04:37:46.929Z,97.00
2023-03-21T04:38:46.893Z,109.30
2023-03-21T04:39:46.879Z,108.80
2023-03-21T04:40:47.347Z,101.20
2023-03-21T04:41:46.898Z,110.50
2023-03-21T04:42:46.903Z,122.90
2023-03-21T04:43:46.904Z,82.70
2023-03-21T04:44:46.807Z,102.40
2023-03-21T04:45:47.641Z,91.10
2023-03-21T04:46:46.792Z,91.50
2023-03-21T04:47:47.690Z,130.90
2023-03-21T04:48:47.576Z,118.70
2023-03-21T04:49:46.744Z,136.70
2023-03-21T04:50:46.707Z,99.20
2023-03-21T04:51:46.706Z,99.90
2023-03-21T04:52:46.686Z,99.40
2023-03-21T04:53:47.606Z,100.70
2023-03-21T04:54:46.686Z,85.90
2023-03-21T04:55:46.726Z,89.80
2023-03-21T04:56:47.576Z,92.10
2023-03-21T04:57:46.628Z,93.10
2023-03-21T04:58:46.649Z,98.80
2023-03-21T04:59:47.533Z,84.60
2023-03-21T05:00:46.621Z,108.10
2023-03-21T05:01:48.515Z,88.00
2023-03-21T05:02:47.514Z,103.20
2023-03-21T05:03:46.598Z,107.20
2023-03-21T05:04:46.505Z,94.10
2023-03-21T05:05:47.448Z,93.40
2023-03-21T05:06:46.495Z,114.70
2023-03-21T05:07:46.480Z,108.40
2023-03-21T05:08:47.346Z,109.50
2023-03-21T05:09:47.309Z,124.50
2023-03-21T05:10:46.441Z,135.80
2023-03-21T05:11:46.416Z,110.20
2023-03-21T05:12:47.315Z,145.00
2023-03-21T05:13:47.247Z,147.80
2023-03-21T05:14:47.399Z,145.90
2023-03-21T05:15:46.379Z,150.30
2023-03-21T05:16:46.464Z,130.90
2023-03-21T05:17:47.344Z,147.00
2023-03-21T05:18:46.313Z,152.00
2023-03-21T05:19:46.318Z,164.80
2023-03-21T05:20:46.309Z,156.40
2023-03-21T05:21:46.297Z,140.10
2023-03-21T05:22:46.272Z,135.00
2023-03-21T05:23:46.266Z,131.30
2023-03-21T05:24:46.251Z,121.40
2023-03-21T05:25:46.267Z,129.20
2023-03-21T05:26:46.996Z,130.50
2023-03-21T05:27:47.151Z,162.50
2023-03-21T05:28:47.091Z,151.00
2023-03-21T05:29:46.989Z,139.20
2023-03-21T05:30:46.223Z,151.30
2023-03-21T05:31:47.077Z,154.80
2023-03-21T05:32:46.128Z,169.50
2023-03-21T05:33:46.120Z,142.70
2023-03-21T05:34:46.134Z,142.50
2023-03-21T05:35:46.163Z,137.30
2023-03-21T05:36:46.061Z,126.20
2023-03-21T05:37:46.073Z,146.50
2023-03-21T05:38:46.121Z,135.80
2023-03-21T05:39:46.042Z,139.70
2023-03-21T05:40:46.966Z,169.20
2023-03-21T05:41:46.876Z,174.10
2023-03-21T05:42:47.033Z,141.10
2023-03-21T05:43:45.993Z,137.00
2023-03-21T05:44:45.967Z,138.10
2023-03-21T05:45:45.964Z,132.60
2023-03-21T05:46:45.969Z,145.90
2023-03-21T05:47:46.103Z,126.80
2023-03-21T05:48:46.148Z,144.20
2023-03-21T05:49:46.211Z,159.90
2023-03-21T05:50:45.878Z,147.40
2023-03-21T05:51:46.246Z,166.70
2023-03-21T05:52:45.882Z,134.10
2023-03-21T05:53:45.896Z,117.70
2023-03-21T05:54:45.846Z,118.20
2023-03-21T05:55:45.847Z,150.20
2023-03-21T05:56:45.820Z,143.70
2023-03-21T05:57:45.815Z,122.20
2023-03-21T05:58:45.846Z,176.00
2023-03-21T05:59:45.799Z,153.20
2023-03-21T06:00:46.036Z,170.20
2023-03-21T06:01:46.029Z,149.00
2023-03-21T06:02:45.800Z,149.70
2023-03-21T06:03:45.807Z,165.20
2023-03-21T06:04:45.700Z,143.50
2023-03-21T06:05:46.585Z,137.40
2023-03-21T06:06:45.690Z,143.80
2023-03-21T06:07:45.737Z,146.30
2023-03-21T06:08:45.625Z,129.50
2023-03-21T06:09:45.659Z,164.10
2023-03-21T06:10:46.612Z,151.10
2023-03-21T06:11:45.621Z,175.20
2023-03-21T06:12:45.610Z,184.70
2023-03-21T06:13:45.640Z,185.70
2023-03-21T06:14:45.553Z,164.40
2023-03-21T06:15:45.598Z,165.60
2023-03-21T06:16:45.542Z,150.60
2023-03-21T06:17:46.460Z,120.90
2023-03-21T06:18:46.386Z,138.00
2023-03-21T06:19:45.505Z,150.20
2023-03-21T06:20:45.512Z,136.90
2023-03-21T06:21:45.501Z,131.30
2023-03-21T06:22:45.484Z,137.10
2023-03-21T06:23:45.484Z,159.40
2023-03-21T06:24:46.295Z,152.50
2023-03-21T06:25:46.199Z,117.20
2023-03-21T06:26:45.420Z,147.60
2023-03-21T06:27:46.263Z,131.90
2023-03-21T06:28:46.165Z,132.20
2023-03-21T06:29:45.362Z,133.20
2023-03-21T06:30:45.391Z,109.50
2023-03-21T06:31:46.233Z,127.80
2023-03-21T06:32:46.297Z,141.70
2023-03-21T06:33:45.348Z,113.40
2023-03-21T06:34:46.109Z,137.40
2023-03-21T06:35:46.281Z,113.10
2023-03-21T06:36:46.249Z,149.60
2023-03-21T06:37:46.124Z,117.50
2023-03-21T06:38:46.229Z,123.00
2023-03-21T06:39:46.147Z,150.90
2023-03-21T06:40:46.035Z,153.70
2023-03-21T06:41:46.205Z,132.50
2023-03-21T06:42:45.563Z,126.30
2023-03-21T06:43:45.647Z,109.40
2023-03-21T06:44:45.649Z,134.70
2023-03-21T06:45:46.069Z,120.20
2023-03-21T06:46:45.207Z,114.30
2023-03-21T06:47:45.955Z,108.00
2023-03-21T06:48:46.033Z,113.10
2023-03-21T06:49:45.083Z,94.20
2023-03-21T06:50:45.841Z,102.60
2023-03-21T06:51:45.101Z,103.00
2023-03-21T06:52:45.049Z,101.50
2023-03-21T06:53:45.813Z,115.40
2023-03-21T06:54:45.108Z,102.40
2023-03-21T06:55:45.877Z,96.50
2023-03-21T06:56:45.015Z,99.50
2023-03-21T06:57:45.947Z,105.10
2023-03-21T06:58:44.976Z,91.40
2023-03-21T06:59:44.945Z,83.40
2023-03-21T07:00:45.949Z,85.40
2023-03-21T07:01:45.820Z,98.00
2023-03-21T07:02:45.743Z,93.10
2023-03-21T07:03:45.880Z,111.40
2023-03-21T07:04:45.648Z,109.80
2023-03-21T07:05:45.663Z,102.50
2023-03-21T07:06:45.667Z,119.30
2023-03-21T07:07:45.772Z,101.60
2023-03-21T07:08:45.660Z,111.40
2023-03-21T07:09:45.614Z,96.50
2023-03-21T07:10:45.531Z,114.10
2023-03-21T07:11:45.628Z,103.10
2023-03-21T07:12:45.591Z,95.80
2023-03-21T07:13:45.640Z,123.90
2023-03-21T07:14:45.635Z,106.10
2023-03-21T07:15:44.722Z,109.90
2023-03-21T07:16:44.786Z,93.80
2023-03-21T07:17:44.732Z,95.30
2023-03-21T07:18:45.093Z,106.10
2023-03-21T07:19:45.009Z,83.70
2023-03-21T07:20:44.900Z,93.40
2023-03-21T07:21:44.954Z,92.00
2023-03-21T07:22:45.012Z,85.00
2023-03-21T07:23:45.054Z,57.60
2023-03-21T07:24:48.903Z,84.20
2023-03-21T07:25:45.599Z,85.90
2023-03-21T07:26:45.198Z,92.80
2023-03-21T07:27:44.704Z,76.80
2023-03-21T07:28:45.292Z,70.50
2023-03-21T07:29:44.510Z,84.60
2023-03-21T07:30:44.517Z,79.50
2023-03-21T07:31:45.497Z,71.10
2023-03-21T07:32:44.473Z,66.90
2023-03-21T07:33:44.496Z,71.70
2023-03-21T07:34:44.455Z,75.00
2023-03-21T07:35:44.474Z,58.90
2023-03-21T07:36:45.266Z,55.60
2023-03-21T07:37:44.416Z,63.30
2023-03-21T07:38:44.414Z,63.60
2023-03-21T07:39:44.373Z,54.60
2023-03-21T07:40:44.354Z,62.10
2023-03-21T07:41:44.347Z,62.00
2023-03-21T07:42:44.388Z,67.50
2023-03-21T07:43:44.396Z,68.30
2023-03-21T07:44:44.365Z,62.30
2023-03-21T07:45:44.338Z,68.40
2023-03-21T07:46:44.325Z,71.20
2023-03-21T07:47:44.255Z,71.20
2023-03-21T07:48:44.278Z,56.30
2023-03-21T07:49:44.217Z,57.30
2023-03-21T07:50:44.227Z,51.50
2023-03-21T07:51:44.230Z,59.90
2023-03-21T07:52:45.006Z,55.60
2023-03-21T07:53:44.176Z,52.10
2023-03-21T07:54:44.184Z,51.00
2023-03-21T07:55:44.121Z,58.70
2023-03-21T07:56:44.137Z,56.70
2023-03-21T07:57:44.126Z,60.20
2023-03-21T07:58:44.112Z,55.10
2023-03-21T07:59:44.101Z,67.30
2023-03-21T08:00:44.077Z,58.20
2023-03-21T08:01:44.098Z,70.10
2023-03-21T08:02:44.079Z,54.40
2023-03-21T08:03:44.061Z,51.40
2023-03-21T08:04:44.031Z,46.90
2023-03-21T08:05:43.988Z,46.50
2023-03-21T08:06:43.978Z,52.50
2023-03-21T08:07:43.979Z,54.10
2023-03-21T08:08:43.979Z,64.30
2023-03-21T08:09:43.936Z,45.60
2023-03-21T08:10:48.919Z,48.30
2023-03-21T08:11:43.946Z,53.20
2023-03-21T08:12:43.889Z,51.90
2023-03-21T08:13:43.878Z,52.70
2023-03-21T08:14:44.389Z,55.80
2023-03-21T08:15:44.377Z,49.40
2023-03-21T08:16:43.854Z,59.00
2023-03-21T08:17:43.810Z,56.30
2023-03-21T08:18:43.815Z,51.70
2023-03-21T08:19:43.797Z,55.10
2023-03-21T08:20:43.819Z,49.00
2023-03-21T08:21:43.760Z,61.50
2023-03-21T08:22:44.699Z,63.40
2023-03-21T08:23:43.746Z,60.80
2023-03-21T08:24:43.744Z,59.80
2023-03-21T08:25:43.716Z,73.20
2023-03-21T08:26:43.700Z,74.70
2023-03-21T08:27:43.698Z,69.10
2023-03-21T08:28:44.625Z,64.30
2023-03-21T08:29:43.797Z,72.60
2023-03-21T08:30:43.689Z,64.00
2023-03-21T08:31:43.649Z,73.00
2023-03-21T08:32:43.621Z,68.40
2023-03-21T08:33:44.405Z,70.10
2023-03-21T08:34:44.564Z,80.60
2023-03-21T08:35:43.872Z,70.30
2023-03-21T08:36:43.558Z,59.40
2023-03-21T08:37:44.384Z,57.20
2023-03-21T08:38:44.438Z,66.00
2023-03-21T08:39:44.425Z,60.30
2023-03-21T08:40:44.385Z,52.90
2023-03-21T08:41:44.401Z,56.40
2023-03-21T08:42:43.478Z,50.00
2023-03-21T08:43:44.389Z,55.60
2023-03-21T08:44:44.380Z,54.60
2023-03-21T08:45:43.448Z,34.40
2023-03-21T08:46:43.446Z,38.40
2023-03-21T08:47:43.464Z,44.70
2023-03-21T08:48:43.395Z,50.90
2023-03-21T08:49:44.148Z,46.40
2023-03-21T08:50:43.402Z,43.10
2023-03-21T08:51:43.366Z,47.90
2023-03-21T08:52:44.123Z,45.10
2023-03-21T08:53:43.341Z,49.80
2023-03-21T08:54:43.301Z,39.60
2023-03-21T08:55:43.307Z,41.70
2023-03-21T08:56:43.294Z,41.00
2023-03-21T08:57:44.154Z,40.90
2023-03-21T08:58:43.274Z,40.20
2023-03-21T08:59:43.265Z,41.50
2023-03-21T09:00:43.229Z,42.60
2023-03-21T09:01:44.051Z,51.60
2023-03-21T09:02:44.179Z,41.10
2023-03-21T09:03:44.085Z,45.40
2023-03-21T09:04:44.039Z,44.70
2023-03-21T09:05:44.149Z,55.00
2023-03-21T09:06:44.087Z,48.80
2023-03-21T09:07:43.138Z,48.20
2023-03-21T09:08:43.135Z,45.70
2023-03-21T09:09:43.704Z,53.40
2023-03-21T09:10:43.113Z,48.60
2023-03-21T09:11:44.130Z,47.60
2023-03-21T09:12:43.058Z,42.40
2023-03-21T09:13:43.926Z,50.50
2023-03-21T09:14:43.367Z,40.90
2023-03-21T09:15:43.109Z,39.10
2023-03-21T09:16:43.044Z,42.50
2023-03-21T09:17:42.988Z,37.20
2023-03-21T09:18:43.055Z,48.20
2023-03-21T09:19:43.112Z,41.90
2023-03-21T09:20:43.217Z,39.80
2023-03-21T09:21:42.961Z,33.40
2023-03-21T09:22:43.049Z,34.80
2023-03-21T09:23:43.311Z,39.30
2023-03-21T09:24:42.880Z,26.80
2023-03-21T09:25:42.874Z,32.10
2023-03-21T09:26:43.464Z,30.70
2023-03-21T09:27:43.516Z,28.20
2023-03-21T09:28:42.882Z,37.50
2023-03-21T09:29:42.820Z,38.10
2023-03-21T09:30:43.679Z,29.70
2023-03-21T09:31:42.912Z,31.40
2023-03-21T09:32:42.795Z,32.10
2023-03-21T09:33:42.758Z,34.30
2023-03-21T09:34:42.743Z,32.40
2023-03-21T09:35:42.774Z,27.40
2023-03-21T09:36:42.726Z,28.20
2023-03-21T09:37:42.724Z,31.50
2023-03-21T09:38:42.921Z,30.20
2023-03-21T09:39:42.689Z,31.40
2023-03-21T09:40:42.663Z,24.20
2023-03-21T09:41:42.654Z,29.90
2023-03-21T09:42:42.634Z,28.40
2023-03-21T09:43:42.623Z,30.50
2023-03-21T09:44:42.624Z,30.50
2023-03-21T09:45:42.641Z,25.90
2023-03-21T09:46:42.711Z,25.10
2023-03-21T09:47:42.651Z,30.10
2023-03-21T09:48:54.339Z,27.70
2023-03-21T09:49:43.582Z,25.40
2023-03-21T09:50:43.426Z,27.60
2023-03-21T09:51:42.575Z,25.80
2023-03-21T09:52:43.478Z,25.70
2023-03-21T09:53:42.508Z,29.70
2023-03-21T09:54:43.279Z,30.60
2023-03-21T09:55:43.438Z,26.80
2023-03-21T09:56:43.177Z,23.20
2023-03-21T09:57:43.284Z,25.20
2023-03-21T09:58:43.407Z,26.20
2023-03-21T09:59:42.432Z,28.20
2023-03-21T10:00:43.230Z,31.00
2023-03-21T10:01:43.378Z,28.90
2023-03-21T10:02:43.301Z,27.30
2023-03-21T10:03:42.363Z,28.50
2023-03-21T10:04:42.377Z,27.90
2023-03-21T10:05:42.326Z,28.80
2023-03-21T10:06:43.149Z,30.80
2023-03-21T10:07:43.058Z,28.40
2023-03-21T10:08:42.320Z,28.40
2023-03-21T10:09:42.335Z,31.40
2023-03-21T10:10:43.029Z,33.60
2023-03-21T10:11:43.198Z,31.80
2023-03-21T10:12:43.089Z,33.90
2023-03-21T10:13:42.990Z,32.40
2023-03-21T10:14:42.275Z,30.10
2023-03-21T10:15:43.059Z,35.50
2023-03-21T10:16:42.979Z,30.60
2023-03-21T10:17:43.380Z,30.00
2023-03-21T10:18:42.175Z,29.10
2023-03-21T10:19:42.929Z,29.00
2023-03-21T10:20:43.094Z,26.80
2023-03-21T10:22:01.329Z,27.30
2023-03-21T10:22:43.184Z,28.90
2023-03-21T10:23:43.056Z,30.10
2023-03-21T10:24:42.962Z,27.20
2023-03-21T10:25:42.862Z,30.10
2023-03-21T10:26:43.022Z,31.80
2023-03-21T10:27:42.935Z,31.00
2023-03-21T10:28:52.731Z,30.40
2023-03-21T10:29:43.040Z,32.50
2023-03-21T10:30:42.010Z,29.80
2023-03-21T10:31:42.007Z,27.30
2023-03-21T10:32:42.622Z,35.10
2023-03-21T10:33:42.704Z,29.70
2023-03-21T10:34:41.941Z,32.90
2023-03-21T10:35:42.170Z,36.60
2023-03-21T10:36:41.977Z,35.80
2023-03-21T10:37:42.626Z,34.20
2023-03-21T10:38:42.629Z,33.80
2023-03-21T10:39:42.635Z,34.00
2023-03-21T10:40:42.627Z,38.10
2023-03-21T10:41:42.189Z,34.80
2023-03-21T10:42:42.628Z,37.50
2023-03-21T10:43:42.630Z,35.00
2023-03-21T10:44:41.813Z,37.80
2023-03-21T10:45:42.634Z,36.10
2023-03-21T10:46:42.311Z,35.60
2023-03-21T10:47:42.858Z,36.70
2023-03-21T10:48:42.811Z,33.90
2023-03-21T10:50:05.933Z,32.60
2023-03-21T10:50:42.746Z,33.20
2023-03-21T10:51:41.677Z,32.50
2023-03-21T10:52:41.712Z,30.40
2023-03-21T10:53:41.717Z,33.20
2023-03-21T10:54:41.732Z,35.50
2023-03-21T10:55:41.771Z,33.30
2023-03-21T10:56:41.819Z,33.70
2023-03-21T10:57:41.594Z,33.60
2023-03-21T10:58:41.981Z,29.60
2023-03-21T10:59:42.015Z,33.90
2023-03-21T11:00:41.607Z,32.50
2023-03-21T11:01:41.650Z,30.80
2023-03-21T11:02:41.618Z,34.80
2023-03-21T11:03:41.641Z,36.70
2023-03-21T11:04:41.584Z,37.10
2023-03-21T11:05:42.052Z,40.20
2023-03-21T11:06:41.454Z,36.30
2023-03-21T11:07:41.447Z,39.20
2023-03-21T11:08:41.491Z,39.30
2023-03-21T11:09:41.451Z,42.90
2023-03-21T11:10:41.439Z,46.80
2023-03-21T11:11:41.440Z,49.70
2023-03-21T11:12:41.390Z,49.30
2023-03-21T11:13:41.360Z,56.10
2023-03-21T11:14:41.355Z,51.50
2023-03-21T11:15:41.583Z,48.10
2023-03-21T11:16:42.340Z,39.30
2023-03-21T11:17:41.313Z,41.10
2023-03-21T11:18:41.302Z,47.50
2023-03-21T11:19:41.277Z,36.30
2023-03-21T11:20:41.313Z,47.80
2023-03-21T11:21:41.286Z,35.50
2023-03-21T11:22:41.288Z,34.90
2023-03-21T11:23:41.234Z,42.80
2023-03-21T11:24:41.215Z,33.10
2023-03-21T11:25:41.570Z,38.80
2023-03-21T11:26:41.273Z,34.20
2023-03-21T11:27:41.211Z,40.70
2023-03-21T11:28:41.139Z,32.90
2023-03-21T11:29:41.150Z,35.60
2023-03-21T11:30:41.207Z,32.30
2023-03-21T11:31:41.199Z,31.10
2023-03-21T11:32:41.119Z,39.70
2023-03-21T11:33:41.114Z,32.40
2023-03-21T11:34:41.072Z,29.10
2023-03-21T11:35:41.473Z,34.20
2023-03-21T11:36:41.096Z,29.00
2023-03-21T11:37:41.081Z,32.80
2023-03-21T11:38:41.026Z,32.30
2023-03-21T11:39:41.921Z,30.70
2023-03-21T11:40:41.012Z,30.30
2023-03-21T11:41:41.077Z,24.40
2023-03-21T11:42:40.974Z,26.80
2023-03-21T11:43:41.005Z,23.90
2023-03-21T11:44:41.945Z,22.90
2023-03-21T11:45:41.347Z,28.40
2023-03-21T11:46:40.906Z,24.20
2023-03-21T11:47:40.982Z,27.70
2023-03-21T11:48:40.913Z,29.90
2023-03-21T11:49:40.893Z,24.70
2023-03-21T11:50:41.048Z,27.20
2023-03-21T11:51:40.868Z,25.00
2023-03-21T11:52:40.835Z,25.10
2023-03-21T11:53:40.851Z,21.80
2023-03-21T11:54:40.831Z,25.00
2023-03-21T11:55:40.820Z,23.60
2023-03-21T11:56:40.773Z,23.40
2023-03-21T11:57:40.863Z,27.20
2023-03-21T11:58:40.960Z,26.40
2023-03-21T11:59:40.908Z,26.60
2023-03-21T12:00:40.790Z,25.90
2023-03-21T12:01:40.977Z,26.40
2023-03-21T12:02:40.800Z,25.10
2023-03-21T12:03:47.713Z,23.90
2023-03-21T12:04:42.746Z,25.70
2023-03-21T12:05:40.974Z,26.60
2023-03-21T12:06:40.659Z,27.20
2023-03-21T12:07:40.627Z,25.90
2023-03-21T12:08:40.638Z,26.00
2023-03-21T12:09:41.097Z,23.40
2023-03-21T12:10:40.598Z,24.10
2023-03-21T12:11:40.590Z,28.50
2023-03-21T12:12:40.544Z,25.70
2023-03-21T12:13:40.530Z,26.80
2023-03-21T12:14:40.561Z,27.90
2023-03-21T12:15:41.655Z,29.00
2023-03-21T12:16:40.562Z,27.50
2023-03-21T12:17:41.386Z,30.90
2023-03-21T12:18:41.239Z,30.80
2023-03-21T12:19:40.480Z,25.30
2023-03-21T12:20:40.518Z,25.50
2023-03-21T12:21:41.245Z,31.50
2023-03-21T12:22:40.427Z,29.00
2023-03-21T12:23:40.503Z,31.40
2023-03-21T12:24:40.419Z,31.20
2023-03-21T12:25:40.426Z,40.30
2023-03-21T12:26:41.265Z,29.30
2023-03-21T12:27:40.758Z,28.00
2023-03-21T12:28:40.472Z,27.70
2023-03-21T12:29:41.204Z,23.60
2023-03-21T12:30:41.103Z,20.40
2023-03-21T12:31:41.344Z,20.90
2023-03-21T12:32:41.182Z,25.30
2023-03-21T12:33:40.268Z,26.70
2023-03-21T12:34:40.277Z,28.10
2023-03-21T12:35:40.591Z,25.00
2023-03-21T12:36:40.235Z,24.70
2023-03-21T12:37:45.570Z,22.00
2023-03-21T12:38:40.590Z,21.00
2023-03-21T12:39:40.236Z,20.30
2023-03-21T12:40:40.168Z,24.80
2023-03-21T12:41:40.170Z,23.90
2023-03-21T12:42:40.186Z,22.50
2023-03-21T12:43:40.189Z,23.70
2023-03-21T12:44:40.098Z,17.80